Time;durP1;ratioP1;P1;durP2;ratioP2;P2;SDS_P1;SDS_P2;PMS_P1;PMS_P2;Temp;Humidity;BMP_temperature;BMP_pressure;BME280_temperature;BME280_humidity;BME280_pressure;Samples;Min_cycle;Max_cycle;Signal;HPM_P1;HPM_P2
2022/06/22 00:01:26;;;;;;;1.45;1.20;;;;;;;;;;4562640;28;20050;-69
2022/06/22 00:03:36;;;;;;;2.30;1.00;;;;;;;;;;4563114;28;20086;-68
2022/06/22 00:05:49;;;;;;;1.80;1.10;;;;;;;;;;4561746;28;20101;-69
2022/06/22 00:08:03;;;;;;;1.33;1.00;;;;;;;;;;4564177;28;20048;-69
2022/06/22 00:10:23;;;;;;;1.52;1.10;;;;;;;;;;4571536;28;20615;-69
2022/06/22 00:12:33;;;;;;;1.38;0.98;;;;;;;;;;4561132;28;20036;-70
2022/06/22 00:14:47;;;;;;;1.30;1.00;;;;;;;;;;4554544;28;20215;-70
2022/06/22 00:16:57;;;;;;;1.95;1.10;;;;;;;;;;4566107;28;20069;-70
2022/06/22 00:19:16;;;;;;;1.50;1.10;;;;;;;;;;4562831;28;20115;-69
2022/06/22 00:21:39;;;;;;;1.20;1.00;;;;;;;;;;4566369;28;20054;-70
2022/06/22 00:23:55;;;;;;;2.33;1.35;;;;;;;;;;4564849;28;20032;-69
2022/06/22 00:26:07;;;;;;;;;;;;;;;;;;4563122;28;20045;-70
2022/06/22 00:28:25;;;;;;;1.45;1.15;;;;;;;;;;4562645;28;19916;-70
2022/06/22 00:31:01;;;;;;;1.77;1.20;;;;;;;;;;4563812;28;20109;-69
2022/06/22 00:33:16;;;;;;;1.40;1.30;;;;;;;;;;4564650;28;20036;-69
2022/06/22 00:35:48;;;;;;;1.35;1.10;;;;;;;;;;4562243;28;20036;-70
2022/06/22 00:37:58;;;;;;;1.35;1.23;;;;;;;;;;4561010;28;20035;-70
2022/06/22 00:40:15;;;;;;;1.35;1.17;;;;;;;;;;4562424;28;20508;-70
2022/06/22 00:42:28;;;;;;;1.63;1.13;;;;;;;;;;4561771;28;20031;-69
2022/06/22 00:44:43;;;;;;;1.98;1.40;;;;;;;;;;4563691;28;20036;-70
2022/06/22 00:47:00;;;;;;;1.30;1.20;;;;;;;;;;4563887;28;20033;-70
2022/06/22 00:49:17;;;;;;;1.90;1.40;;;;;;;;;;4565252;27;20032;-70
2022/06/22 00:51:32;;;;;;;1.60;1.40;;;;;;;;;;4571741;28;20139;-70
2022/06/22 00:54:08;;;;;;;1.60;1.50;;;;;;;;;;4571900;28;20036;-70
2022/06/22 00:56:34;;;;;;;1.20;1.10;;;;;;;;;;4562705;28;20033;-69
2022/06/22 00:59:04;;;;;;;1.60;1.48;;;;;;;;;;4565657;28;20056;-70
2022/06/22 01:01:35;;;;;;;2.05;1.60;;;;;;;;;;4564380;28;20040;-69
2022/06/22 01:04:08;;;;;;;1.60;1.40;;;;;;;;;;4565239;28;20063;-70
2022/06/22 01:06:30;;;;;;;1.45;1.35;;;;;;;;;;4565939;28;20606;-70
2022/06/22 01:08:50;;;;;;;1.67;1.42;;;;;;;;;;4568567;28;20593;-70
2022/06/22 01:12:16;;;;;;;1.80;1.50;;;;;;;;;;4564719;28;20028;-70
2022/06/22 01:13:44;;;;;;;1.90;1.40;;;;;;;;;;4567465;28;20041;-70
2022/06/22 01:15:58;;;;;;;1.40;1.30;;;;;;;;;;4567398;28;20028;-69
2022/06/22 01:18:33;;;;;;;1.50;1.40;;;;;;;;;;4564172;28;20044;-70
2022/06/22 01:20:50;;;;;;;1.50;1.40;;;;;;;;;;4556612;28;20031;-69
2022/06/22 01:23:16;;;;;;;1.35;1.25;;;;;;;;;;4563599;28;21005;-70
2022/06/22 01:25:36;;;;;;;1.92;1.42;;;;;;;;;;4566703;28;20040;-70
2022/06/22 01:27:47;;;;;;;1.40;1.30;;;;;;;;;;4565228;28;20036;-70
2022/06/22 01:30:00;;;;;;;1.50;1.23;;;;;;;;;;4566992;28;20464;-70
2022/06/22 01:32:16;;;;;;;2.08;1.50;;;;;;;;;;4569318;28;20529;-70
2022/06/22 01:34:44;;;;;;;2.13;1.58;;;;;;;;;;4567452;28;20029;-70
2022/06/22 01:37:03;;;;;;;2.15;1.40;;;;;;;;;;4565143;28;20041;-69
2022/06/22 01:39:14;;;;;;;1.52;1.23;;;;;;;;;;4563482;28;20025;-70
2022/06/22 01:41:42;;;;;;;2.05;1.30;;;;;;;;;;4565677;28;20032;-70
2022/06/22 01:44:17;;;;;;;1.40;1.30;;;;;;;;;;4563813;28;20045;-69
2022/06/22 01:47:09;;;;;;;2.03;1.40;;;;;;;;;;4555866;28;20044;-69
2022/06/22 01:49:31;;;;;;;1.40;1.30;;;;;;;;;;4556160;27;20093;-70
2022/06/22 01:51:49;;;;;;;1.38;1.20;;;;;;;;;;4565243;28;20611;-70
2022/06/22 01:54:04;;;;;;;1.60;1.25;;;;;;;;;;4550371;28;20036;-70
2022/06/22 01:56:39;;;;;;;2.25;1.30;;;;;;;;;;4566440;27;20109;-70
2022/06/22 01:59:04;;;;;;;1.30;1.20;;;;;;;;;;4568065;28;20032;-70
2022/06/22 02:01:35;;;;;;;1.95;1.38;;;;;;;;;;4564333;28;20036;-70
2022/06/22 02:03:59;;;;;;;1.98;1.48;;;;;;;;;;4564694;28;20091;-70
2022/06/22 02:08:54;;;;;;;1.73;1.40;;;;;;;;;;4572733;28;20025;-70
2022/06/22 02:11:11;;;;;;;1.50;1.30;;;;;;;;;;4565110;28;20163;-70
2022/06/22 02:13:39;;;;;;;2.00;1.40;;;;;;;;;;4565819;27;20048;-70
2022/06/22 02:15:50;;;;;;;2.10;1.60;;;;;;;;;;4563859;28;20028;-70
2022/06/22 02:18:02;;;;;;;1.52;1.40;;;;;;;;;;4565248;28;20024;-70
2022/06/22 02:20:18;;;;;;;1.75;1.30;;;;;;;;;;4566060;28;20035;-70
2022/06/22 02:22:29;;;;;;;1.80;1.42;;;;;;;;;;4564456;28;20048;-69
2022/06/22 02:24:46;;;;;;;1.52;1.40;;;;;;;;;;4565842;27;20397;-70
2022/06/22 02:27:14;;;;;;;1.40;1.20;;;;;;;;;;4555729;28;20063;-70
2022/06/22 02:29:29;;;;;;;2.75;1.80;;;;;;;;;;4563640;28;20152;-70
2022/06/22 02:31:40;;;;;;;1.40;1.30;;;;;;;;;;4564356;28;20078;-70
2022/06/22 02:33:53;;;;;;;1.50;1.40;;;;;;;;;;4562918;28;20619;-70
2022/06/22 02:36:04;;;;;;;1.85;1.38;;;;;;;;;;4563912;28;20039;-70
2022/06/22 02:38:15;;;;;;;1.77;1.42;;;;;;;;;;4564064;27;20131;-70
2022/06/22 02:40:27;;;;;;;1.40;1.30;;;;;;;;;;4555886;28;20040;-69
2022/06/22 02:45:09;;;;;;;2.17;1.65;;;;;;;;;;4564423;28;20036;-70
2022/06/22 02:47:19;;;;;;;1.88;1.50;;;;;;;;;;4573660;28;20063;-70
2022/06/22 02:49:33;;;;;;;1.48;1.38;;;;;;;;;;4567721;27;20764;-70
2022/06/22 02:51:45;;;;;;;2.35;1.48;;;;;;;;;;4566117;28;20034;-70
2022/06/22 02:53:58;;;;;;;2.55;1.45;;;;;;;;;;4565359;28;20081;-70
2022/06/22 02:56:25;;;;;;;1.63;1.30;;;;;;;;;;4564317;28;20091;-70
2022/06/22 02:58:37;;;;;;;2.15;1.58;;;;;;;;;;4566503;28;20066;-70
2022/06/22 03:00:48;;;;;;;2.22;1.50;;;;;;;;;;4568035;28;20036;-70
2022/06/22 03:03:04;;;;;;;1.95;1.70;;;;;;;;;;4562962;28;20032;-71
2022/06/22 03:05:16;;;;;;;2.30;1.77;;;;;;;;;;4565175;28;20086;-70
2022/06/22 03:07:28;;;;;;;1.88;1.40;;;;;;;;;;4563119;28;20036;-69
2022/06/22 03:09:39;;;;;;;2.15;1.60;;;;;;;;;;4564208;28;20099;-71
2022/06/22 03:11:52;;;;;;;2.00;1.60;;;;;;;;;;4562366;28;20678;-70
2022/06/22 03:14:11;;;;;;;3.08;1.60;;;;;;;;;;4563520;28;20094;-70
2022/06/22 03:16:34;;;;;;;2.80;1.65;;;;;;;;;;4548979;28;20072;-69
2022/06/22 03:18:44;;;;;;;2.20;1.55;;;;;;;;;;4566974;28;20607;-69
2022/06/22 03:20:58;;;;;;;2.47;1.60;;;;;;;;;;4564544;28;20111;-70
2022/06/22 03:23:54;;;;;;;1.77;1.50;;;;;;;;;;4561668;28;20085;-70
2022/06/22 03:26:13;;;;;;;2.85;1.60;;;;;;;;;;4563418;28;20840;-70
2022/06/22 03:28:37;;;;;;;2.08;1.63;;;;;;;;;;4565199;28;20070;-70
2022/06/22 03:30:54;;;;;;;2.42;1.70;;;;;;;;;;4560011;28;20025;-71
2022/06/22 03:33:08;;;;;;;1.65;1.55;;;;;;;;;;4563361;28;20715;-71
2022/06/22 03:35:32;;;;;;;2.40;1.70;;;;;;;;;;4571933;28;20610;-71
2022/06/22 03:38:13;;;;;;;2.40;1.45;;;;;;;;;;4560540;28;20670;-70
2022/06/22 03:40:33;;;;;;;1.83;1.55;;;;;;;;;;4569551;28;20591;-70
2022/06/22 03:42:48;;;;;;;2.25;1.70;;;;;;;;;;4560711;28;20036;-70
2022/06/22 03:45:23;;;;;;;2.05;1.67;;;;;;;;;;4565598;28;20032;-70
2022/06/22 03:47:34;;;;;;;2.30;1.67;;;;;;;;;;4562317;28;20053;-70
2022/06/22 03:50:08;;;;;;;2.28;1.90;;;;;;;;;;4563292;28;20584;-69
2022/06/22 03:52:31;;;;;;;2.13;1.80;;;;;;;;;;4563965;28;20104;-69
2022/06/22 03:54:50;;;;;;;2.00;1.60;;;;;;;;;;4571688;28;20115;-70
2022/06/22 03:57:03;;;;;;;2.30;1.77;;;;;;;;;;4562260;28;20032;-70
2022/06/22 03:59:14;;;;;;;2.50;1.70;;;;;;;;;;4571746;28;20066;-70
2022/06/22 04:01:24;;;;;;;2.35;1.60;;;;;;;;;;4563454;28;20067;-69
2022/06/22 04:03:35;;;;;;;1.60;1.50;;;;;;;;;;4565187;28;24587;-70
2022/06/22 04:05:55;;;;;;;2.13;1.63;;;;;;;;;;4564565;28;20036;-70
2022/06/22 04:08:06;;;;;;;1.92;1.70;;;;;;;;;;4562272;28;20111;-70
2022/06/22 04:10:37;;;;;;;2.10;1.63;;;;;;;;;;4562529;27;20020;-70
2022/06/22 04:12:48;;;;;;;2.55;1.73;;;;;;;;;;4563371;28;20368;-71
2022/06/22 04:15:34;;;;;;;1.98;1.50;;;;;;;;;;4563474;28;20079;-70
2022/06/22 04:18:19;;;;;;;1.90;1.48;;;;;;;;;;4565119;28;20028;-70
2022/06/22 04:20:50;;;;;;;2.50;1.80;;;;;;;;;;4494087;28;20048;-70
2022/06/22 04:23:00;;;;;;;1.60;1.50;;;;;;;;;;4564803;28;20152;-70
2022/06/22 04:25:37;;;;;;;2.17;1.70;;;;;;;;;;4531347;28;20040;-71
2022/06/22 04:27:49;;;;;;;2.35;1.65;;;;;;;;;;4557919;28;20040;-70
2022/06/22 04:30:18;;;;;;;2.42;1.75;;;;;;;;;;4562058;28;20993;-71
2022/06/22 04:32:30;;;;;;;1.90;1.50;;;;;;;;;;4565184;28;20276;-70
2022/06/22 04:34:59;;;;;;;1.80;1.67;;;;;;;;;;4562382;28;20087;-70
2022/06/22 04:37:21;;;;;;;1.75;1.55;;;;;;;;;;4560013;28;20051;-70
2022/06/22 04:39:45;;;;;;;2.10;1.80;;;;;;;;;;4565768;28;20833;-70
2022/06/22 04:42:00;;;;;;;2.35;1.80;;;;;;;;;;4569151;28;20063;-71
2022/06/22 04:44:15;;;;;;;2.63;1.60;;;;;;;;;;4566211;28;21047;-71
2022/06/22 04:46:30;;;;;;;2.15;1.90;;;;;;;;;;4564388;28;20582;-70
2022/06/22 04:48:47;;;;;;;2.65;1.80;;;;;;;;;;4551213;28;20041;-71
2022/06/22 04:51:00;;;;;;;3.17;1.90;;;;;;;;;;4565843;28;20031;-71
2022/06/22 04:53:38;;;;;;;2.70;2.10;;;;;;;;;;4565495;28;20902;-71
2022/06/22 04:55:49;;;;;;;3.45;1.90;;;;;;;;;;4564918;28;20052;-71
2022/06/22 04:58:02;;;;;;;2.88;2.00;;;;;;;;;;4566799;28;20032;-70
2022/06/22 05:00:19;;;;;;;2.17;1.92;;;;;;;;;;4568243;28;20024;-70
2022/06/22 05:02:37;;;;;;;2.45;2.00;;;;;;;;;;4567941;27;20575;-71
2022/06/22 05:04:51;;;;;;;2.33;1.95;;;;;;;;;;4564829;28;20703;-70
2022/06/22 05:07:05;;;;;;;2.10;1.90;;;;;;;;;;4565769;28;20718;-70
2022/06/22 05:09:24;;;;;;;2.67;1.90;;;;;;;;;;4565057;28;20767;-70
2022/06/22 05:11:41;;;;;;;2.45;2.08;;;;;;;;;;4573585;28;20032;-70
2022/06/22 05:13:54;;;;;;;2.63;2.03;;;;;;;;;;4575538;28;20132;-70
2022/06/22 05:16:07;;;;;;;2.38;2.00;;;;;;;;;;4551584;28;20041;-70
2022/06/22 05:18:21;;;;;;;2.67;2.30;;;;;;;;;;4574571;28;20039;-69
2022/06/22 05:20:37;;;;;;;2.50;1.92;;;;;;;;;;4566277;28;20096;-70
2022/06/22 05:22:48;;;;;;;2.10;1.90;;;;;;;;;;4567029;27;20092;-70
2022/06/22 05:25:04;;;;;;;2.30;2.10;;;;;;;;;;4565198;28;20036;-70
2022/06/22 05:27:22;;;;;;;2.15;1.95;;;;;;;;;;4573383;28;20052;-70
2022/06/22 05:29:45;;;;;;;2.08;1.88;;;;;;;;;;4540394;28;20067;-70
2022/06/22 05:31:59;;;;;;;2.10;1.88;;;;;;;;;;4564292;28;20029;-70
2022/06/22 05:34:15;;;;;;;2.25;1.70;;;;;;;;;;4563468;28;20028;-70
2022/06/22 05:36:26;;;;;;;2.85;1.80;;;;;;;;;;4565372;28;20047;-69
2022/06/22 05:38:40;;;;;;;1.90;1.70;;;;;;;;;;4564940;27;20079;-71
2022/06/22 05:40:50;;;;;;;2.67;1.70;;;;;;;;;;4565513;28;20032;-69
2022/06/22 05:43:01;;;;;;;3.08;1.85;;;;;;;;;;4564879;28;20041;-71
2022/06/22 05:45:24;;;;;;;2.28;1.95;;;;;;;;;;4564762;28;20620;-69
2022/06/22 05:47:34;;;;;;;2.60;1.60;;;;;;;;;;4562972;28;20033;-70
2022/06/22 05:49:54;;;;;;;2.15;1.77;;;;;;;;;;4573670;28;24129;-70
2022/06/22 05:52:11;;;;;;;1.80;1.50;;;;;;;;;;4566304;28;20807;-70
2022/06/22 05:54:27;;;;;;;1.73;1.60;;;;;;;;;;4566427;28;20016;-71
2022/06/22 05:56:44;;;;;;;1.53;1.43;;;;;;;;;;4573160;28;20118;-71
2022/06/22 05:59:13;;;;;;;2.28;1.90;;;;;;;;;;4564666;28;20135;-70
2022/06/22 06:02:04;;;;;;;2.80;2.00;;;;;;;;;;4566551;28;20064;-70
2022/06/22 06:04:33;;;;;;;2.28;1.80;;;;;;;;;;4565267;28;20596;-70
2022/06/22 06:06:44;;;;;;;2.35;1.65;;;;;;;;;;4566166;28;20044;-70
2022/06/22 06:09:04;;;;;;;2.08;1.70;;;;;;;;;;4567588;28;20623;-70
2022/06/22 06:11:19;;;;;;;3.85;1.83;;;;;;;;;;4556068;28;20025;-69
2022/06/22 06:13:36;;;;;;;2.42;1.70;;;;;;;;;;4565042;28;20025;-70
2022/06/22 06:15:51;;;;;;;2.65;1.70;;;;;;;;;;4567515;28;20522;-69
2022/06/22 06:18:02;;;;;;;2.47;1.70;;;;;;;;;;4567248;28;20708;-69
2022/06/22 06:20:26;;;;;;;2.17;1.73;;;;;;;;;;4565444;27;20036;-69
2022/06/22 06:22:36;;;;;;;3.13;1.52;;;;;;;;;;4565535;28;20639;-70
2022/06/22 06:27:34;;;;;;;1.77;1.50;;;;;;;;;;4566913;28;20028;-70
2022/06/22 06:29:51;;;;;;;2.65;1.83;;;;;;;;;;4564431;28;20032;-69
2022/06/22 06:32:03;;;;;;;1.92;1.80;;;;;;;;;;4565805;28;20033;-70
2022/06/22 06:34:19;;;;;;;2.83;1.95;;;;;;;;;;4564375;28;20036;-68
2022/06/22 06:36:43;;;;;;;2.15;1.77;;;;;;;;;;4563895;28;20148;-68
2022/06/22 06:38:59;;;;;;;2.10;1.80;;;;;;;;;;4567144;28;20032;-67
2022/06/22 06:41:10;;;;;;;;;;;;;;;;;;4573223;28;20562;-67
2022/06/22 06:43:36;;;;;;;2.33;1.70;;;;;;;;;;4564716;28;19916;-68
2022/06/22 06:45:47;;;;;;;2.22;1.90;;;;;;;;;;4564539;28;20040;-66
2022/06/22 06:48:01;;;;;;;2.38;1.58;;;;;;;;;;4564238;28;20032;-67
2022/06/22 06:50:35;;;;;;;2.35;1.70;;;;;;;;;;4562903;28;20628;-68
2022/06/22 06:52:56;;;;;;;2.40;1.90;;;;;;;;;;4568470;27;20302;-67
2022/06/22 06:55:12;;;;;;;2.35;1.80;;;;;;;;;;4555444;28;20043;-67
2022/06/22 06:57:23;;;;;;;2.90;1.90;;;;;;;;;;4563224;28;20024;-66
2022/06/22 06:59:34;;;;;;;3.58;1.80;;;;;;;;;;4561739;28;20394;-67
2022/06/22 07:01:46;;;;;;;4.00;2.05;;;;;;;;;;4560045;28;20094;-67
2022/06/22 07:04:02;;;;;;;2.00;1.70;;;;;;;;;;4565546;28;20024;-67
2022/06/22 07:06:13;;;;;;;2.42;1.77;;;;;;;;;;4563296;28;20599;-69
2022/06/22 07:08:33;;;;;;;2.55;1.73;;;;;;;;;;4563314;28;20181;-68
2022/06/22 07:10:51;;;;;;;2.60;1.67;;;;;;;;;;4562953;28;20044;-68
2022/06/22 07:13:06;;;;;;;1.75;1.60;;;;;;;;;;4564996;28;20591;-68
2022/06/22 07:15:21;;;;;;;3.33;1.92;;;;;;;;;;4552148;27;20878;-67
2022/06/22 07:17:33;;;;;;;2.17;1.48;;;;;;;;;;4563874;27;20609;-68
2022/06/22 07:19:54;;;;;;;2.30;1.50;;;;;;;;;;4565944;28;20646;-67
2022/06/22 07:22:11;;;;;;;2.15;1.60;;;;;;;;;;4562633;28;20036;-67
2022/06/22 07:24:35;;;;;;;1.92;1.67;;;;;;;;;;4564640;28;20048;-68
2022/06/22 07:26:48;;;;;;;2.40;1.80;;;;;;;;;;4549563;28;20681;-67
2022/06/22 07:29:13;;;;;;;1.73;1.52;;;;;;;;;;4563517;28;20040;-68
2022/06/22 07:31:31;;;;;;;2.00;1.45;;;;;;;;;;4564145;28;20126;-67
2022/06/22 07:33:52;;;;;;;2.47;1.70;;;;;;;;;;4564786;28;20024;-67
2022/06/22 07:36:06;;;;;;;2.55;1.60;;;;;;;;;;4572287;28;20304;-68
2022/06/22 07:38:41;;;;;;;2.53;1.55;;;;;;;;;;4562981;27;20036;-69
2022/06/22 07:43:21;;;;;;;2.25;1.50;;;;;;;;;;4563107;28;20588;-68
2022/06/22 07:45:32;;;;;;;2.10;1.40;;;;;;;;;;4562206;27;20062;-67
2022/06/22 07:47:54;;;;;;;1.80;1.40;;;;;;;;;;4548299;28;20032;-67
2022/06/22 07:50:19;;;;;;;1.85;1.33;;;;;;;;;;4563482;28;20602;-67
2022/06/22 07:52:37;;;;;;;2.08;1.40;;;;;;;;;;4564936;28;20032;-67
2022/06/22 07:54:51;;;;;;;1.67;1.38;;;;;;;;;;4564152;27;20040;-68
2022/06/22 07:57:28;;;;;;;2.00;1.50;;;;;;;;;;4565514;28;20028;-68
2022/06/22 07:59:48;;;;;;;1.70;1.30;;;;;;;;;;4563725;28;20098;-67
2022/06/22 08:02:03;;;;;;;2.03;1.35;;;;;;;;;;4562100;28;20027;-67
2022/06/22 08:04:28;;;;;;;1.77;1.30;;;;;;;;;;4565032;28;20534;-68
2022/06/22 08:06:50;;;;;;;3.80;1.38;;;;;;;;;;4564986;28;20508;-68
2022/06/22 08:09:07;;;;;;;2.13;1.50;;;;;;;;;;4566288;28;20028;-67
2022/06/22 08:11:20;;;;;;;;;;;;;;;;;;4573134;27;20043;-67
2022/06/22 08:13:37;;;;;;;2.45;1.52;;;;;;;;;;4562193;28;19923;-67
2022/06/22 08:15:58;;;;;;;2.55;1.50;;;;;;;;;;4566763;28;20048;-67
2022/06/22 08:18:09;;;;;;;2.00;1.48;;;;;;;;;;4563540;28;20051;-68
2022/06/22 08:20:24;;;;;;;1.85;1.38;;;;;;;;;;4563029;27;20037;-68
2022/06/22 08:22:34;;;;;;;2.35;1.67;;;;;;;;;;4561153;28;20155;-68
2022/06/22 08:24:47;;;;;;;2.35;1.48;;;;;;;;;;4561869;28;20027;-68
2022/06/22 08:26:58;;;;;;;2.33;1.35;;;;;;;;;;4570696;28;20048;-68
2022/06/22 08:29:09;;;;;;;2.42;1.40;;;;;;;;;;4562216;28;20040;-67
2022/06/22 08:31:20;;;;;;;2.10;1.50;;;;;;;;;;4563434;28;20102;-68
2022/06/22 08:33:37;;;;;;;1.75;1.33;;;;;;;;;;4562058;27;20094;-68
2022/06/22 08:35:58;;;;;;;2.05;1.63;;;;;;;;;;4563321;27;20033;-68
2022/06/22 08:38:15;;;;;;;1.67;1.50;;;;;;;;;;4563552;28;20039;-68
2022/06/22 08:40:47;;;;;;;2.17;1.40;;;;;;;;;;4561292;28;20041;-68
2022/06/22 08:43:19;;;;;;;2.65;1.60;;;;;;;;;;4565452;27;20182;-68
2022/06/22 08:45:51;;;;;;;2.75;1.80;;;;;;;;;;4562260;28;20071;-68
2022/06/22 08:48:25;;;;;;;2.00;1.52;;;;;;;;;;4562339;28;20037;-67
2022/06/22 08:50:49;;;;;;;1.88;1.30;;;;;;;;;;4560806;28;20036;-68
2022/06/22 08:53:28;;;;;;;2.05;1.20;;;;;;;;;;4564712;28;20600;-68
2022/06/22 08:56:00;;;;;;;2.88;1.60;;;;;;;;;;4549003;28;20040;-68
2022/06/22 08:58:38;;;;;;;2.25;1.40;;;;;;;;;;4563012;27;20184;-69
2022/06/22 09:00:51;;;;;;;;;;;;;;;;;;4562572;28;20108;-69
2022/06/22 09:03:19;;;;;;;1.98;1.50;;;;;;;;;;4563972;28;19916;-70
2022/06/22 09:05:51;;;;;;;1.88;1.30;;;;;;;;;;4562784;28;20021;-69
2022/06/22 09:08:39;;;;;;;1.67;1.50;;;;;;;;;;4564912;28;20040;-68
2022/06/22 09:10:58;;;;;;;2.83;1.50;;;;;;;;;;4561936;27;20035;-69
2022/06/22 09:13:24;;;;;;;1.70;1.40;;;;;;;;;;4562417;28;20048;-69
2022/06/22 09:16:12;;;;;;;1.73;1.40;;;;;;;;;;4563005;28;20032;-68
2022/06/22 09:18:34;;;;;;;1.83;1.65;;;;;;;;;;4563459;28;20036;-68
2022/06/22 09:20:56;;;;;;;1.70;1.38;;;;;;;;;;4561779;28;20076;-68
2022/06/22 09:23:24;;;;;;;2.00;1.40;;;;;;;;;;4538653;28;20543;-68
2022/06/22 09:25:37;;;;;;;;;;;;;;;;;;4569330;28;20028;-68
2022/06/22 09:27:53;;;;;;;2.15;1.45;;;;;;;;;;4566018;28;19923;-68
2022/06/22 09:30:39;;;;;;;1.70;1.60;;;;;;;;;;4573647;28;20032;-68
2022/06/22 09:32:55;;;;;;;2.13;1.40;;;;;;;;;;4567296;28;20090;-69
2022/06/22 09:35:20;;;;;;;1.65;1.40;;;;;;;;;;4567833;28;20130;-68
2022/06/22 09:37:50;;;;;;;1.67;1.40;;;;;;;;;;4565164;28;20037;-68
2022/06/22 09:40:31;;;;;;;2.00;1.38;;;;;;;;;;4565265;27;21016;-68
2022/06/22 09:43:04;;;;;;;2.20;1.48;;;;;;;;;;4565552;28;20040;-68
2022/06/22 09:45:36;;;;;;;1.60;1.50;;;;;;;;;;4566214;28;20036;-68
2022/06/22 09:48:18;;;;;;;2.40;1.40;;;;;;;;;;4555186;28;20040;-68
2022/06/22 09:50:38;;;;;;;2.03;1.45;;;;;;;;;;4567901;28;20070;-68
2022/06/22 09:53:00;;;;;;;1.40;1.30;;;;;;;;;;4563412;28;20031;-68
2022/06/22 09:58:17;;;;;;;3.55;1.90;;;;;;;;;;4565235;28;20820;-68
2022/06/22 10:00:45;;;;;;;1.90;1.70;;;;;;;;;;4566059;28;20032;-68
2022/06/22 10:03:19;;;;;;;1.77;1.38;;;;;;;;;;4565307;28;20526;-69
2022/06/22 10:05:49;;;;;;;1.52;1.35;;;;;;;;;;4565553;28;20873;-69
2022/06/22 10:08:12;;;;;;;0.50;0.50;;;;;;;;;;4564952;28;20839;-68
2022/06/22 10:10:29;;;;;;;0.45;0.45;;;;;;;;;;4564107;28;20115;-68
2022/06/22 10:13:28;;;;;;;0.65;0.50;;;;;;;;;;4568093;27;20036;-68
2022/06/22 10:16:19;;;;;;;0.50;0.50;;;;;;;;;;4520833;28;20037;-68
2022/06/22 10:18:52;;;;;;;0.50;0.50;;;;;;;;;;4573633;28;20028;-68
2022/06/22 10:21:22;;;;;;;0.43;0.43;;;;;;;;;;4564838;28;20135;-69
2022/06/22 10:24:02;;;;;;;0.57;0.52;;;;;;;;;;4565853;28;20051;-68
2022/06/22 10:26:36;;;;;;;0.50;0.50;;;;;;;;;;4566681;28;20040;-69
2022/06/22 10:29:17;;;;;;;0.50;0.50;;;;;;;;;;4574834;28;20113;-69
2022/06/22 10:31:27;;;;;;;0.43;0.43;;;;;;;;;;4567903;27;20203;-68
2022/06/22 10:33:50;;;;;;;0.50;0.50;;;;;;;;;;4565400;28;20083;-68
2022/06/22 10:36:21;;;;;;;0.40;0.40;;;;;;;;;;4571981;28;20036;-68
2022/06/22 10:38:37;;;;;;;0.40;0.40;;;;;;;;;;4561700;28;20036;-69
2022/06/22 10:46:52;;;;;;;0.30;0.30;;;;;;;;;;4564022;28;20117;-68
2022/06/22 10:49:21;;;;;;;0.50;0.50;;;;;;;;;;4564196;28;20040;-68
2022/06/22 10:51:41;;;;;;;0.40;0.40;;;;;;;;;;4563069;28;20028;-68
2022/06/22 10:54:29;;;;;;;0.43;0.43;;;;;;;;;;4572260;28;20033;-68
2022/06/22 10:56:52;;;;;;;0.40;0.40;;;;;;;;;;4562677;28;20032;-68
2022/06/22 10:59:25;;;;;;;0.40;0.40;;;;;;;;;;4566604;28;20029;-68
2022/06/22 11:01:43;;;;;;;0.40;0.40;;;;;;;;;;4563784;28;21326;-68
2022/06/22 11:04:12;;;;;;;0.98;0.50;;;;;;;;;;4572956;28;20032;-68
2022/06/22 11:06:35;;;;;;;0.40;0.40;;;;;;;;;;4564646;28;20075;-70
2022/06/22 11:08:46;;;;;;;0.30;0.30;;;;;;;;;;4564926;28;20156;-68
2022/06/22 11:11:11;;;;;;;0.40;0.40;;;;;;;;;;4563501;28;20047;-68
2022/06/22 11:13:46;;;;;;;0.30;0.30;;;;;;;;;;4564611;28;20897;-67
2022/06/22 11:16:23;;;;;;;0.40;0.40;;;;;;;;;;4565409;28;20033;-68
2022/06/22 11:18:36;;;;;;;0.40;0.40;;;;;;;;;;4562707;28;20044;-68
2022/06/22 11:20:52;;;;;;;0.30;0.30;;;;;;;;;;4564496;28;20226;-68
2022/06/22 11:23:11;;;;;;;0.40;0.40;;;;;;;;;;4551155;28;20051;-68
2022/06/22 11:31:31;;;;;;;0.50;0.47;;;;;;;;;;4562048;28;20041;-67
2022/06/22 11:33:58;;;;;;;0.40;0.40;;;;;;;;;;4562098;28;20040;-68
2022/06/22 11:36:30;;;;;;;0.40;0.40;;;;;;;;;;4562832;28;20038;-68
2022/06/22 11:39:01;;;;;;;0.45;0.38;;;;;;;;;;4565214;28;20049;-68
2022/06/22 11:41:41;;;;;;;0.40;0.40;;;;;;;;;;4566151;28;20036;-68
2022/06/22 11:44:00;;;;;;;0.63;0.35;;;;;;;;;;4537237;27;20607;-68
2022/06/22 11:46:23;;;;;;;0.40;0.40;;;;;;;;;;4565463;28;20042;-69
2022/06/22 11:48:56;;;;;;;0.47;0.43;;;;;;;;;;4549205;28;20039;-68
2022/06/22 11:51:16;;;;;;;0.30;0.30;;;;;;;;;;4564383;28;20127;-68
2022/06/22 11:53:34;;;;;;;0.40;0.40;;;;;;;;;;4566244;28;20853;-68
2022/06/22 11:55:49;;;;;;;0.50;0.50;;;;;;;;;;4562562;28;20038;-68
2022/06/22 11:58:09;;;;;;;0.40;0.40;;;;;;;;;;4572000;28;20044;-69
2022/06/22 12:00:28;;;;;;;0.40;0.40;;;;;;;;;;4563928;28;20757;-68
2022/06/22 12:03:10;;;;;;;0.35;0.35;;;;;;;;;;4561241;28;20036;-68
2022/06/22 12:05:42;;;;;;;0.38;0.38;;;;;;;;;;4564904;28;20669;-69
2022/06/22 12:08:11;;;;;;;0.40;0.40;;;;;;;;;;4563485;28;20124;-69
2022/06/22 12:10:40;;;;;;;0.50;0.50;;;;;;;;;;4562672;28;20040;-68
2022/06/22 12:13:00;;;;;;;0.40;0.40;;;;;;;;;;4564222;28;20103;-69
2022/06/22 12:15:56;;;;;;;0.50;0.50;;;;;;;;;;4562530;28;20021;-67
2022/06/22 12:18:45;;;;;;;0.30;0.30;;;;;;;;;;4565291;28;20047;-67
2022/06/22 12:21:19;;;;;;;0.30;0.30;;;;;;;;;;4564921;28;20033;-68
2022/06/22 12:23:58;;;;;;;0.32;0.30;;;;;;;;;;4563226;28;20136;-67
2022/06/22 12:26:27;;;;;;;0.35;0.35;;;;;;;;;;4566159;28;20040;-66
2022/06/22 12:28:40;;;;;;;0.30;0.30;;;;;;;;;;4561745;28;20584;-67
2022/06/22 12:31:05;;;;;;;0.30;0.30;;;;;;;;;;4562922;28;21118;-67
2022/06/22 12:33:36;;;;;;;0.52;0.40;;;;;;;;;;4561457;28;20103;-67
2022/06/22 12:36:10;;;;;;;0.30;0.30;;;;;;;;;;4563696;28;20077;-67
2022/06/22 12:38:29;;;;;;;0.30;0.30;;;;;;;;;;4562195;28;20124;-67
2022/06/22 12:40:53;;;;;;;0.30;0.30;;;;;;;;;;4565211;28;20031;-66
2022/06/22 12:43:41;;;;;;;0.40;0.40;;;;;;;;;;4563945;28;20095;-67
2022/06/22 12:45:54;;;;;;;0.52;0.52;;;;;;;;;;4550486;28;20102;-67
2022/06/22 12:48:24;;;;;;;0.30;0.30;;;;;;;;;;4560838;28;20033;-67
2022/06/22 12:51:03;;;;;;;0.40;0.30;;;;;;;;;;4563294;27;20960;-68
2022/06/22 12:53:13;;;;;;;0.40;0.40;;;;;;;;;;4562669;28;20029;-67
2022/06/22 12:55:31;;;;;;;0.30;0.30;;;;;;;;;;4560771;27;20445;-66
2022/06/22 12:57:49;;;;;;;0.30;0.30;;;;;;;;;;4561392;27;20033;-67
2022/06/22 13:00:06;;;;;;;0.40;0.40;;;;;;;;;;4568884;28;20033;-67
2022/06/22 13:02:20;;;;;;;0.32;0.32;;;;;;;;;;4565758;28;20036;-68
2022/06/22 13:04:34;;;;;;;0.30;0.30;;;;;;;;;;4566688;28;20036;-67
2022/06/22 13:07:05;;;;;;;0.30;0.30;;;;;;;;;;4565443;28;20033;-67
2022/06/22 13:09:17;;;;;;;0.32;0.32;;;;;;;;;;4564156;28;20036;-67
2022/06/22 13:11:29;;;;;;;0.22;0.22;;;;;;;;;;4558106;28;20063;-66
2022/06/22 13:14:05;;;;;;;0.30;0.30;;;;;;;;;;4565737;28;20044;-67
2022/06/22 13:16:21;;;;;;;0.38;0.38;;;;;;;;;;4565922;28;20040;-66
2022/06/22 13:18:32;;;;;;;0.38;0.38;;;;;;;;;;4566823;28;20064;-67
2022/06/22 13:20:49;;;;;;;0.43;0.40;;;;;;;;;;4566259;28;20056;-68
2022/06/22 13:23:08;;;;;;;0.32;0.32;;;;;;;;;;4564912;28;20036;-68
2022/06/22 13:25:32;;;;;;;0.40;0.30;;;;;;;;;;4564024;28;20744;-67
2022/06/22 13:27:53;;;;;;;0.50;0.50;;;;;;;;;;4566806;28;20033;-68
2022/06/22 13:30:28;;;;;;;0.30;0.30;;;;;;;;;;4564767;28;20036;-67
2022/06/22 13:32:39;;;;;;;0.30;0.30;;;;;;;;;;4565376;28;20048;-67
2022/06/22 13:34:56;;;;;;;0.30;0.30;;;;;;;;;;4573772;28;20030;-66
2022/06/22 13:37:17;;;;;;;0.50;0.40;;;;;;;;;;4580079;27;20036;-67
2022/06/22 13:39:33;;;;;;;0.30;0.30;;;;;;;;;;4567975;28;20032;-67
2022/06/22 13:41:56;;;;;;;;;;;;;;;;;;4566323;28;20507;-66
2022/06/22 13:44:25;;;;;;;0.40;0.40;;;;;;;;;;4564672;28;20444;-67
2022/06/22 13:47:07;;;;;;;0.38;0.38;;;;;;;;;;4565781;27;20050;-67
2022/06/22 13:49:26;;;;;;;0.32;0.32;;;;;;;;;;4556678;28;20055;-67
2022/06/22 13:52:04;;;;;;;0.30;0.30;;;;;;;;;;4563505;28;20028;-68
2022/06/22 13:54:34;;;;;;;;;;;;;;;;;;4564953;28;20118;-67
2022/06/22 13:57:10;;;;;;;0.40;0.40;;;;;;;;;;4564338;28;19994;-67
2022/06/22 13:59:53;;;;;;;0.40;0.40;;;;;;;;;;4565000;28;20082;-66
2022/06/22 14:02:45;;;;;;;0.30;0.30;;;;;;;;;;4536476;28;20048;-67
2022/06/22 14:05:06;;;;;;;0.30;0.30;;;;;;;;;;4567626;28;21033;-66
2022/06/22 14:07:30;;;;;;;0.30;0.30;;;;;;;;;;4564094;28;20119;-67
2022/06/22 14:10:02;;;;;;;0.20;0.20;;;;;;;;;;4568852;27;20066;-68
2022/06/22 14:12:26;;;;;;;0.40;0.40;;;;;;;;;;4565251;27;20434;-68
2022/06/22 14:14:48;;;;;;;0.30;0.30;;;;;;;;;;4565798;28;20044;-67
2022/06/22 14:17:15;;;;;;;0.28;0.28;;;;;;;;;;4565179;28;20613;-68
2022/06/22 14:19:49;;;;;;;0.30;0.30;;;;;;;;;;4565080;28;20587;-67
2022/06/22 14:22:06;;;;;;;0.60;0.40;;;;;;;;;;4566346;28;20048;-68
2022/06/22 14:24:29;;;;;;;0.30;0.30;;;;;;;;;;4563884;28;20032;-68
2022/06/22 14:27:03;;;;;;;0.30;0.30;;;;;;;;;;4549635;28;20114;-68
2022/06/22 14:29:16;;;;;;;0.30;0.30;;;;;;;;;;4566963;28;21464;-67
2022/06/22 14:31:46;;;;;;;0.30;0.30;;;;;;;;;;4566012;28;20525;-68
2022/06/22 14:34:09;;;;;;;0.30;0.30;;;;;;;;;;4565219;27;20685;-68
2022/06/22 14:36:55;;;;;;;0.30;0.30;;;;;;;;;;4573460;28;20067;-67
2022/06/22 14:39:25;;;;;;;0.30;0.30;;;;;;;;;;4520148;28;20411;-67